createdAt,value
2023-05-19T00:00:17.499Z,97282.72
2023-05-19T00:02:44.145Z,97277.38
2023-05-19T00:05:10.796Z,97279.56
2023-05-19T00:07:37.353Z,97285.94
2023-05-19T00:10:03.880Z,97278.06
2023-05-19T00:12:30.422Z,97287.72
2023-05-19T00:14:57.063Z,97282.03
2023-05-19T00:17:23.669Z,97279.47
2023-05-19T00:19:50.233Z,97282.00
2023-05-19T00:22:16.918Z,97279.34
2023-05-19T00:24:43.599Z,97271.97
2023-05-19T00:27:10.128Z,97278.63
2023-05-19T00:29:36.734Z,97269.19
2023-05-19T00:32:03.394Z,97261.88
2023-05-19T00:34:31.076Z,97260.00
2023-05-19T00:36:57.609Z,97259.53
2023-05-19T00:39:24.099Z,97267.16
2023-05-19T00:41:50.815Z,97271.09
2023-05-19T00:44:17.468Z,97258.69
2023-05-19T00:46:44.090Z,97259.88
2023-05-19T00:49:10.708Z,97255.22
2023-05-19T00:51:37.235Z,97261.72
2023-05-19T00:54:03.767Z,97257.41
2023-05-19T00:56:30.350Z,97257.22
2023-05-19T00:58:56.934Z,97263.75
2023-05-19T01:01:23.516Z,97260.31
2023-05-19T01:03:50.205Z,97253.03
2023-05-19T01:06:16.744Z,97259.63
2023-05-19T01:08:43.248Z,97252.56
2023-05-19T01:11:09.903Z,97250.03
2023-05-19T01:13:36.670Z,97250.31
2023-05-19T01:16:03.432Z,97244.91
2023-05-19T01:18:30.068Z,97251.25
2023-05-19T01:20:56.613Z,97250.66
2023-05-19T01:23:23.118Z,97248.16
2023-05-19T01:25:49.672Z,97251.50
2023-05-19T01:28:16.224Z,97255.84
2023-05-19T01:30:42.755Z,97251.16
2023-05-19T01:33:09.404Z,97252.56
2023-05-19T01:35:35.971Z,97256.59
2023-05-19T01:38:02.572Z,97252.63
2023-05-19T01:40:29.289Z,97258.47
2023-05-19T01:42:57.502Z,97257.16
2023-05-19T01:45:24.260Z,97262.25
2023-05-19T01:47:50.839Z,97260.41
2023-05-19T01:50:17.381Z,97255.63
2023-05-19T01:52:43.993Z,97255.28
2023-05-19T01:55:10.546Z,97254.09
2023-05-19T01:57:37.112Z,97247.59
2023-05-19T02:00:03.645Z,97253.50
2023-05-19T02:02:30.225Z,97251.88
2023-05-19T02:04:56.781Z,97253.03
2023-05-19T02:07:23.314Z,97256.69
2023-05-19T02:09:49.897Z,97253.38
2023-05-19T02:12:16.545Z,97252.09
2023-05-19T02:14:43.150Z,97248.78
2023-05-19T02:17:09.740Z,97251.88
2023-05-19T02:19:36.251Z,97241.03
2023-05-19T02:22:02.823Z,97248.78
2023-05-19T02:24:29.419Z,97249.94
2023-05-19T02:26:55.890Z,97248.94
2023-05-19T02:29:22.577Z,97251.16
2023-05-19T02:31:49.161Z,97250.91
2023-05-19T02:34:15.750Z,97249.25
2023-05-19T02:36:42.335Z,97251.50
2023-05-19T02:39:08.903Z,97248.00
2023-05-19T02:41:35.503Z,97249.19
2023-05-19T02:44:02.152Z,97245.59
2023-05-19T02:46:28.874Z,97237.09
2023-05-19T02:48:55.379Z,97246.78
2023-05-19T02:51:21.884Z,97240.25
2023-05-19T02:53:48.538Z,97246.53
2023-05-19T02:56:15.146Z,97240.63
2023-05-19T02:58:41.788Z,97237.09
2023-05-19T03:01:08.311Z,97239.56
2023-05-19T03:03:35.036Z,97233.28
2023-05-19T03:06:01.721Z,97229.56
2023-05-19T03:08:28.269Z,97233.28
2023-05-19T03:10:54.797Z,97238.22
2023-05-19T03:13:21.380Z,97226.38
2023-05-19T03:15:50.923Z,97232.56
2023-05-19T03:18:17.528Z,97232.28
2023-05-19T03:20:44.065Z,97231.81
2023-05-19T03:23:12.775Z,97223.72
2023-05-19T03:25:39.291Z,97222.50
2023-05-19T03:28:05.870Z,97224.50
2023-05-19T03:30:32.813Z,97224.06
2023-05-19T03:32:59.634Z,97222.41
2023-05-19T03:35:26.279Z,97221.66
2023-05-19T03:37:52.809Z,97222.53
2023-05-19T03:40:19.352Z,97223.66
2023-05-19T03:42:45.955Z,97224.06
2023-05-19T03:45:12.485Z,97224.03
2023-05-19T03:47:39.095Z,97221.78
2023-05-19T03:50:05.745Z,97223.19
2023-05-19T03:52:32.351Z,97221.66
2023-05-19T03:55:01.782Z,97232.09
2023-05-19T03:57:28.372Z,97240.03
2023-05-19T03:59:54.986Z,97244.19
2023-05-19T04:02:21.660Z,97239.56
2023-05-19T04:04:48.261Z,97246.31
2023-05-19T04:07:14.811Z,97245.28
2023-05-19T04:09:41.380Z,97246.53
2023-05-19T04:12:07.913Z,97244.53
2023-05-19T04:14:34.529Z,97251.56
2023-05-19T04:17:01.129Z,97252.78
2023-05-19T04:19:27.862Z,97252.31
2023-05-19T04:21:54.627Z,97262.81
2023-05-19T04:24:21.283Z,97262.34
2023-05-19T04:26:48.889Z,97255.44
2023-05-19T04:29:15.477Z,97253.50
2023-05-19T04:31:42.156Z,97252.13
2023-05-19T04:34:08.844Z,97250.19
2023-05-19T04:36:35.418Z,97254.19
2023-05-19T04:39:01.929Z,97260.34
2023-05-19T04:41:28.464Z,97263.16
2023-05-19T04:43:55.051Z,97267.69
2023-05-19T04:46:21.629Z,97267.75
2023-05-19T04:48:51.210Z,97262.28
2023-05-19T04:51:17.805Z,97260.25
2023-05-19T04:53:44.307Z,97264.53
2023-05-19T04:56:10.772Z,97261.09
2023-05-19T04:58:37.751Z,97262.81
2023-05-19T05:01:05.251Z,97269.75
2023-05-19T05:03:31.986Z,97268.13
2023-05-19T05:05:58.558Z,97263.00
2023-05-19T05:08:28.102Z,97264.56
2023-05-19T05:10:57.428Z,97265.72
2023-05-19T05:13:24.033Z,97261.75
2023-05-19T05:15:50.639Z,97254.97
2023-05-19T05:18:17.220Z,97254.22
2023-05-19T05:20:43.736Z,97254.19
2023-05-19T05:23:10.246Z,97251.09
2023-05-19T05:25:36.874Z,97250.75
2023-05-19T05:28:03.462Z,97255.25
2023-05-19T05:30:30.038Z,97245.63
2023-05-19T05:32:56.713Z,97251.16
2023-05-19T05:35:23.365Z,97249.13
2023-05-19T05:37:49.959Z,97256.44
2023-05-19T05:40:16.478Z,97256.50
2023-05-19T05:42:43.056Z,97259.16
2023-05-19T05:45:09.650Z,97262.69
2023-05-19T05:47:36.231Z,97255.19
2023-05-19T05:50:02.814Z,97263.06
2023-05-19T05:52:29.345Z,97256.00
2023-05-19T05:54:55.845Z,97253.50
2023-05-19T05:57:22.345Z,97251.75
2023-05-19T05:59:48.806Z,97261.50
2023-05-19T06:02:15.326Z,97252.47
2023-05-19T06:04:41.962Z,97254.34
2023-05-19T06:07:08.433Z,97259.06
2023-05-19T06:09:34.955Z,97251.25
2023-05-19T06:12:01.480Z,97247.31
2023-05-19T06:14:27.965Z,97251.66
2023-05-19T06:16:54.503Z,97248.16
2023-05-19T06:19:21.187Z,97244.28
2023-05-19T06:21:47.828Z,97244.47
2023-05-19T06:24:14.428Z,97249.59
2023-05-19T06:26:40.994Z,97248.00
2023-05-19T06:29:07.526Z,97244.91
2023-05-19T06:31:34.156Z,97241.63
2023-05-19T06:34:00.736Z,97234.25
2023-05-19T06:36:27.242Z,97230.63
2023-05-19T06:38:53.697Z,97229.16
2023-05-19T06:41:23.043Z,97234.59
2023-05-19T06:43:49.644Z,97233.06
2023-05-19T06:46:16.172Z,97235.72
2023-05-19T06:48:42.708Z,97232.94
2023-05-19T06:51:09.319Z,97231.47
2023-05-19T06:53:35.813Z,97232.94
2023-05-19T06:56:02.305Z,97224.91
2023-05-19T06:58:28.849Z,97231.72
2023-05-19T07:00:55.428Z,97222.81
2023-05-19T07:03:21.987Z,97218.91
2023-05-19T07:05:48.738Z,97229.38
2023-05-19T07:08:15.239Z,97210.69
2023-05-19T07:10:41.797Z,97224.28
2023-05-19T07:13:08.302Z,97218.84
2023-05-19T07:15:34.814Z,97219.19
2023-05-19T07:18:01.319Z,97221.91
2023-05-19T07:20:27.799Z,97222.25
2023-05-19T07:22:54.253Z,97221.13
2023-05-19T07:25:20.746Z,97226.72
2023-05-19T07:27:47.264Z,97226.28
2023-05-19T07:30:13.834Z,97232.47
2023-05-19T07:32:40.475Z,97228.69
2023-05-19T07:35:07.039Z,97221.03
2023-05-19T07:37:33.555Z,97226.94
2023-05-19T07:40:00.100Z,97221.59
2023-05-19T07:42:26.773Z,97212.97
2023-05-19T07:44:53.388Z,97212.50
2023-05-19T07:47:20.574Z,97206.94
2023-05-19T07:49:48.090Z,97212.00
2023-05-19T07:52:15.719Z,97210.34
2023-05-19T07:54:42.253Z,97206.38
2023-05-19T07:57:10.181Z,97199.06
2023-05-19T07:59:36.725Z,97207.13
2023-05-19T08:02:03.305Z,97203.22
2023-05-19T08:04:29.985Z,97206.44
2023-05-19T08:06:56.547Z,97200.78
2023-05-19T08:09:23.079Z,97201.97
2023-05-19T08:11:52.454Z,97203.16
2023-05-19T08:14:18.974Z,97200.13
2023-05-19T08:16:45.462Z,97201.16
2023-05-19T08:19:12.531Z,97198.97
2023-05-19T08:21:39.179Z,97196.97
2023-05-19T08:24:05.706Z,97196.56
2023-05-19T08:26:32.267Z,97199.69
2023-05-19T08:28:58.834Z,97196.91
2023-05-19T08:31:25.517Z,97198.00
2023-05-19T08:33:52.113Z,97196.13
2023-05-19T08:36:18.613Z,97190.56
2023-05-19T08:38:45.165Z,97193.94
2023-05-19T08:41:11.705Z,97191.09
2023-05-19T08:43:38.343Z,97188.13
2023-05-19T08:46:04.829Z,97183.06
2023-05-19T08:48:31.378Z,97183.44
2023-05-19T08:50:57.930Z,97191.94
2023-05-19T08:53:33.668Z,97188.38
2023-05-19T08:56:00.815Z,97185.91
2023-05-19T08:58:28.734Z,97193.47
2023-05-19T09:00:55.488Z,97176.34
2023-05-19T09:03:23.857Z,97179.22
2023-05-19T09:05:50.893Z,97176.84
2023-05-19T09:08:17.499Z,97180.06
2023-05-19T09:10:44.074Z,97183.38
2023-05-19T09:13:10.632Z,97164.66
2023-05-19T09:15:37.171Z,97157.13
2023-05-19T09:18:03.797Z,97151.69
2023-05-19T09:20:30.377Z,97156.03
2023-05-19T09:22:56.922Z,97153.81
2023-05-19T09:25:23.504Z,97150.28
2023-05-19T09:27:50.055Z,97137.34
2023-05-19T09:30:16.652Z,97138.78
2023-05-19T09:32:43.931Z,97138.94
2023-05-19T09:35:10.674Z,97136.38
2023-05-19T09:37:37.233Z,97135.66
2023-05-19T09:40:03.821Z,97131.06
2023-05-19T09:42:30.377Z,97136.78
2023-05-19T09:44:56.892Z,97132.16
2023-05-19T09:47:23.508Z,97132.78
2023-05-19T09:49:50.071Z,97127.59
2023-05-19T09:52:16.674Z,97139.66
2023-05-19T09:54:43.199Z,97135.38
2023-05-19T09:57:09.681Z,97132.41
2023-05-19T09:59:36.175Z,97134.59
2023-05-19T10:02:03.123Z,97130.78
2023-05-19T10:04:29.946Z,97137.69
2023-05-19T10:06:56.508Z,97136.38
2023-05-19T10:09:23.072Z,97119.94
2023-05-19T10:11:49.641Z,97120.31
2023-05-19T10:14:16.146Z,97119.59
2023-05-19T10:16:42.776Z,97123.25
2023-05-19T10:19:09.410Z,97129.53
2023-05-19T10:21:35.979Z,97131.00
2023-05-19T10:24:02.505Z,97118.31
2023-05-19T10:26:29.047Z,97128.34
2023-05-19T10:28:55.599Z,97122.00
2023-05-19T10:31:22.189Z,97121.50
2023-05-19T10:33:48.764Z,97126.84
2023-05-19T10:36:15.264Z,97126.72
2023-05-19T10:38:41.838Z,97115.44
2023-05-19T10:41:08.848Z,97131.16
2023-05-19T10:43:35.442Z,97119.19
2023-05-19T10:46:02.090Z,97117.22
2023-05-19T10:48:28.634Z,97121.84
2023-05-19T10:50:55.148Z,97110.91
2023-05-19T10:53:21.684Z,97113.69
2023-05-19T10:55:48.202Z,97106.63
2023-05-19T10:58:14.780Z,97100.72
2023-05-19T11:00:41.366Z,97103.06
2023-05-19T11:03:07.953Z,97099.94
2023-05-19T11:05:34.693Z,97102.56
2023-05-19T11:08:01.417Z,97095.19
2023-05-19T11:10:27.999Z,97099.03
2023-05-19T11:12:54.539Z,97089.34
2023-05-19T11:15:20.992Z,97097.38
2023-05-19T11:17:47.518Z,97094.31
2023-05-19T11:20:14.216Z,97096.44
2023-05-19T11:22:40.733Z,97092.63
2023-05-19T11:25:09.995Z,97088.69
2023-05-19T11:27:36.568Z,97092.63
2023-05-19T11:30:03.115Z,97085.44
2023-05-19T11:32:29.788Z,97091.09
2023-05-19T11:34:56.458Z,97086.75
2023-05-19T11:37:22.939Z,97097.69
2023-05-19T11:39:49.474Z,97078.03
2023-05-19T11:42:15.982Z,97085.31
2023-05-19T11:44:42.501Z,97068.34
2023-05-19T11:47:09.058Z,97071.22
2023-05-19T11:49:35.625Z,97069.78
2023-05-19T11:52:02.173Z,97065.78
2023-05-19T11:54:28.709Z,97078.44
2023-05-19T11:56:55.761Z,97069.09
2023-05-19T11:59:22.296Z,97072.16
2023-05-19T12:01:48.816Z,97064.66
2023-05-19T12:04:15.376Z,97069.03
2023-05-19T12:06:41.971Z,97060.50
2023-05-19T12:09:08.608Z,97047.19
2023-05-19T12:11:35.173Z,97048.31
2023-05-19T12:14:01.702Z,97053.81
2023-05-19T12:16:28.229Z,97060.34
2023-05-19T12:18:54.860Z,97052.22
2023-05-19T12:21:21.453Z,97048.63
2023-05-19T12:23:47.925Z,97052.22
2023-05-19T12:26:14.456Z,97059.16
2023-05-19T12:28:40.929Z,97050.41
2023-05-19T12:31:07.481Z,97054.22
2023-05-19T12:33:35.605Z,97044.78
2023-05-19T12:36:02.523Z,97055.56
2023-05-19T12:38:29.093Z,97051.66
2023-05-19T12:40:55.673Z,97056.06
2023-05-19T12:43:22.259Z,97049.13
2023-05-19T12:45:48.929Z,97062.63
2023-05-19T12:48:15.452Z,97048.94
2023-05-19T12:50:42.124Z,97055.97
2023-05-19T12:53:08.745Z,97043.66
2023-05-19T12:55:35.250Z,97039.75
2023-05-19T12:58:01.728Z,97046.72
2023-05-19T13:00:28.664Z,97038.91
2023-05-19T13:02:55.716Z,97045.19
2023-05-19T13:05:22.388Z,97053.72
2023-05-19T13:07:48.832Z,97049.59
2023-05-19T13:10:15.284Z,97038.81
2023-05-19T13:12:41.784Z,97037.09
2023-05-19T13:15:08.361Z,97043.25
2023-05-19T13:17:34.983Z,97027.78
2023-05-19T13:20:01.493Z,97022.91
2023-05-19T13:22:28.063Z,97023.25
2023-05-19T13:24:54.569Z,97032.94
2023-05-19T13:27:21.127Z,97034.16
2023-05-19T13:29:47.680Z,97028.78
2023-05-19T13:32:14.195Z,97030.06
2023-05-19T13:34:40.911Z,97028.19
2023-05-19T13:37:07.733Z,97038.00
2023-05-19T13:39:34.895Z,97031.13
2023-05-19T13:42:01.378Z,97034.47
2023-05-19T13:44:27.837Z,97034.41
2023-05-19T13:46:54.421Z,97035.47
2023-05-19T13:49:20.926Z,97026.03
2023-05-19T13:51:47.443Z,97023.84
2023-05-19T13:54:14.019Z,97031.50
2023-05-19T13:56:40.509Z,97039.56
2023-05-19T13:59:07.019Z,97032.25
2023-05-19T14:01:33.608Z,97020.19
2023-05-19T14:04:00.993Z,97029.47
2023-05-19T14:06:27.803Z,97025.25
2023-05-19T14:08:54.340Z,97030.69
2023-05-19T14:11:20.921Z,97023.94
2023-05-19T14:13:47.416Z,97018.78
2023-05-19T14:16:13.980Z,97018.09
2023-05-19T14:18:40.665Z,97024.06
2023-05-19T14:21:07.230Z,97030.13
2023-05-19T14:23:33.778Z,97030.50
2023-05-19T14:26:00.267Z,97021.06
2023-05-19T14:28:26.842Z,97029.50
2023-05-19T14:30:53.333Z,97016.56
2023-05-19T14:33:19.825Z,97023.44
2023-05-19T14:35:46.301Z,97015.94
2023-05-19T14:38:12.841Z,97028.25
2023-05-19T14:40:39.415Z,97020.94
2023-05-19T14:43:05.939Z,97023.66
2023-05-19T14:45:32.455Z,97026.50
2023-05-19T14:47:59.024Z,97022.63
2023-05-19T14:50:26.877Z,97024.25
2023-05-19T14:52:54.340Z,97033.63
2023-05-19T14:55:20.915Z,97030.66
2023-05-19T14:57:47.477Z,97023.88
2023-05-19T15:00:14.028Z,97024.34
2023-05-19T15:02:40.624Z,97028.19
2023-05-19T15:05:07.188Z,97019.00
2023-05-19T15:07:33.745Z,97030.25
2023-05-19T15:10:00.245Z,97030.00
2023-05-19T15:12:26.753Z,97030.91
2023-05-19T15:14:53.302Z,97034.50
2023-05-19T15:17:19.851Z,97019.88
2023-05-19T15:19:46.391Z,97014.44
2023-05-19T15:22:12.875Z,97020.19
2023-05-19T15:24:39.340Z,97012.91
2023-05-19T15:27:05.873Z,97022.25
2023-05-19T15:29:32.409Z,97016.56
2023-05-19T15:31:58.935Z,97016.16
2023-05-19T15:34:25.533Z,97021.59
2023-05-19T15:36:52.100Z,97020.06
2023-05-19T15:39:18.671Z,97016.16
2023-05-19T15:41:45.213Z,97022.91
2023-05-19T15:44:12.068Z,97024.16
2023-05-19T15:46:38.619Z,97026.34
2023-05-19T15:49:05.264Z,97034.63
2023-05-19T15:51:33.045Z,97031.69
2023-05-19T15:53:59.986Z,97029.75
2023-05-19T15:56:26.507Z,97035.28
2023-05-19T15:58:53.056Z,97023.59
2023-05-19T16:01:20.206Z,97028.91
2023-05-19T16:03:47.135Z,97027.81
2023-05-19T16:06:13.821Z,97021.09
2023-05-19T16:08:40.325Z,97018.16
2023-05-19T16:11:06.834Z,97024.84
2023-05-19T16:13:33.395Z,97020.50
2023-05-19T16:16:00.001Z,97015.84
2023-05-19T16:18:26.631Z,97021.13
2023-05-19T16:20:53.178Z,97011.44
2023-05-19T16:23:19.682Z,97022.63
2023-05-19T16:25:46.175Z,97016.88
2023-05-19T16:28:12.693Z,97009.56
2023-05-19T16:30:39.161Z,97015.34
2023-05-19T16:33:05.770Z,97009.22
2023-05-19T16:35:32.437Z,97005.75
2023-05-19T16:37:59.027Z,97011.09
2023-05-19T16:40:25.602Z,97009.03
2023-05-19T16:42:52.064Z,97010.91
2023-05-19T16:45:18.582Z,97008.88
2023-05-19T16:47:45.131Z,97014.00
2023-05-19T16:50:11.681Z,97006.16
2023-05-19T16:52:38.388Z,97009.03
2023-05-19T16:55:04.888Z,97014.25
2023-05-19T16:57:31.395Z,97006.50
2023-05-19T16:59:57.977Z,97006.75
2023-05-19T17:02:24.485Z,97002.69
2023-05-19T17:04:51.119Z,97001.59
2023-05-19T17:07:17.656Z,97003.22
2023-05-19T17:09:44.154Z,97009.91
2023-05-19T17:12:10.635Z,97005.31
2023-05-19T17:14:37.204Z,96998.47
2023-05-19T17:17:03.814Z,97004.97
2023-05-19T17:19:30.413Z,96999.22
2023-05-19T17:21:56.977Z,97006.16
2023-05-19T17:24:23.523Z,97018.41
2023-05-19T17:26:50.508Z,97012.63
2023-05-19T17:29:17.333Z,97023.06
2023-05-19T17:31:43.872Z,97007.44
2023-05-19T17:34:10.476Z,97011.44
2023-05-19T17:36:37.105Z,97015.59
2023-05-19T17:39:03.610Z,97015.00
2023-05-19T17:41:30.063Z,97008.03
2023-05-19T17:43:56.569Z,97007.72
2023-05-19T17:46:23.080Z,97010.16
2023-05-19T17:48:49.570Z,97017.47
2023-05-19T17:51:16.122Z,97011.28
2023-05-19T17:53:42.709Z,97006.66
2023-05-19T17:56:09.217Z,97014.47
2023-05-19T17:58:35.768Z,97010.97
2023-05-19T18:01:02.312Z,97003.59
2023-05-19T18:03:29.127Z,97005.22
2023-05-19T18:05:55.757Z,97006.72
2023-05-19T18:08:22.308Z,97007.44
2023-05-19T18:10:48.887Z,97007.78
2023-05-19T18:13:15.384Z,97017.72
2023-05-19T18:15:42.040Z,97007.53
2023-05-19T18:18:08.624Z,97010.66
2023-05-19T18:20:35.453Z,97012.63
2023-05-19T18:23:02.436Z,97014.91
2023-05-19T18:25:29.071Z,97015.28
2023-05-19T18:27:55.713Z,97011.13
2023-05-19T18:30:22.244Z,97009.91
2023-05-19T18:32:48.828Z,97013.31
2023-05-19T18:35:15.375Z,97011.44
2023-05-19T18:37:41.877Z,97004.41
2023-05-19T18:40:08.432Z,97010.59
2023-05-19T18:42:35.047Z,97005.50
2023-05-19T18:45:01.535Z,97015.69
2023-05-19T18:47:28.074Z,97006.97
2023-05-19T18:49:54.644Z,97009.22
2023-05-19T18:52:21.259Z,97014.16
2023-05-19T18:54:47.792Z,97015.34
2023-05-19T18:57:14.301Z,97008.41
2023-05-19T18:59:40.781Z,97008.03
2023-05-19T19:02:07.467Z,97010.59
2023-05-19T19:04:34.010Z,97006.34
2023-05-19T19:07:00.547Z,97009.91
2023-05-19T19:09:27.043Z,97007.75
2023-05-19T19:11:53.599Z,97006.22
2023-05-19T19:14:20.202Z,97005.56
2023-05-19T19:16:46.794Z,97016.78
2023-05-19T19:19:13.454Z,97010.69
2023-05-19T19:21:40.118Z,97016.06
2023-05-19T19:24:06.679Z,97023.34
2023-05-19T19:26:33.198Z,97027.63
2023-05-19T19:28:59.671Z,97019.53
2023-05-19T19:31:26.291Z,97031.25
2023-05-19T19:33:52.780Z,97030.41
2023-05-19T19:36:19.343Z,97025.13
2023-05-19T19:38:45.904Z,97032.41
2023-05-19T19:41:12.431Z,97028.31
2023-05-19T19:43:39.040Z,97031.03
2023-05-19T19:46:05.611Z,97023.53
2023-05-19T19:48:32.135Z,97030.41
2023-05-19T19:50:58.723Z,97038.00
2023-05-19T19:53:25.208Z,97033.66
2023-05-19T19:55:51.763Z,97039.75
2023-05-19T19:58:18.286Z,97038.63
2023-05-19T20:00:44.852Z,97039.31
2023-05-19T20:03:11.503Z,97035.44
2023-05-19T20:05:38.006Z,97038.31
2023-05-19T20:08:04.552Z,97038.41
2023-05-19T20:10:31.128Z,97045.44
2023-05-19T20:12:57.765Z,97022.78
2023-05-19T20:15:24.341Z,97028.41
2023-05-19T20:17:50.962Z,97023.78
2023-05-19T20:20:17.571Z,97015.31
2023-05-19T20:22:44.170Z,97025.22
2023-05-19T20:25:10.766Z,97026.28
2023-05-19T20:27:37.337Z,97025.84
2023-05-19T20:30:03.983Z,97031.72
2023-05-19T20:32:30.610Z,97030.44
2023-05-19T20:34:57.180Z,97027.56
2023-05-19T20:37:23.764Z,97030.53
2023-05-19T20:39:50.372Z,97024.16
2023-05-19T20:42:16.926Z,97023.78
2023-05-19T20:44:43.649Z,97026.75
2023-05-19T20:47:10.318Z,97031.19
2023-05-19T20:49:36.933Z,97027.88
2023-05-19T20:52:03.531Z,97035.81
2023-05-19T20:54:30.123Z,97029.47
2023-05-19T20:56:56.740Z,97033.25
2023-05-19T20:59:23.337Z,97030.81
2023-05-19T21:01:49.977Z,97035.97
2023-05-19T21:04:16.587Z,97034.09
2023-05-19T21:06:43.237Z,97029.50
2023-05-19T21:09:09.885Z,97030.69
2023-05-19T21:11:36.491Z,97028.81
2023-05-19T21:14:03.124Z,97031.19
2023-05-19T21:16:29.812Z,97026.44
2023-05-19T21:18:56.483Z,97037.44
2023-05-19T21:21:23.109Z,97032.78
2023-05-19T21:23:49.688Z,97024.84
2023-05-19T21:26:16.229Z,97030.34
2023-05-19T21:28:42.738Z,97025.94
2023-05-19T21:31:09.333Z,97024.22
2023-05-19T21:33:35.927Z,97030.34
2023-05-19T21:36:02.488Z,97028.41
2023-05-19T21:38:29.134Z,97023.13
2023-05-19T21:40:55.730Z,97013.53
2023-05-19T21:43:22.330Z,97020.63
2023-05-19T21:45:48.941Z,97020.91
2023-05-19T21:48:15.538Z,97018.09
2023-05-19T21:50:42.075Z,97018.59
2023-05-19T21:53:08.582Z,97019.81
2023-05-19T21:55:35.182Z,97013.53
2023-05-19T21:58:02.723Z,97005.47
2023-05-19T22:00:29.707Z,97004.22
2023-05-19T22:02:56.534Z,97009.13
2023-05-19T22:05:23.253Z,97006.47
2023-05-19T22:07:49.866Z,96998.59
2023-05-19T22:10:16.397Z,96989.28
2023-05-19T22:12:42.921Z,96998.00
2023-05-19T22:15:09.514Z,96996.38
2023-05-19T22:17:36.102Z,97000.06
2023-05-19T22:20:02.740Z,97008.38
2023-05-19T22:22:29.288Z,97012.63
2023-05-19T22:24:55.886Z,97008.38
2023-05-19T22:27:22.423Z,97004.03
2023-05-19T22:29:48.996Z,97011.84
2023-05-19T22:32:15.607Z,97018.03
2023-05-19T22:34:42.232Z,97005.66
2023-05-19T22:37:08.839Z,97002.28
2023-05-19T22:39:35.434Z,96997.97
2023-05-19T22:42:01.964Z,97010.50
2023-05-19T22:44:28.558Z,97007.44
2023-05-19T22:46:55.100Z,97012.53
2023-05-19T22:49:21.690Z,97009.31
2023-05-19T22:51:48.267Z,97008.44
2023-05-19T22:54:14.874Z,97003.06
2023-05-19T22:56:41.878Z,97005.03
2023-05-19T22:59:09.255Z,97004.34
2023-05-19T23:01:35.831Z,96997.25
2023-05-19T23:04:02.516Z,96994.16
2023-05-19T23:06:29.144Z,97005.22
2023-05-19T23:08:55.746Z,96991.66
2023-05-19T23:11:22.336Z,96996.81
2023-05-19T23:13:48.924Z,96995.00
2023-05-19T23:16:15.436Z,96997.25
2023-05-19T23:18:42.102Z,96997.16
2023-05-19T23:21:08.669Z,96994.53
2023-05-19T23:23:35.203Z,96993.47
2023-05-19T23:26:01.812Z,96986.38
2023-05-19T23:28:28.409Z,96989.44
2023-05-19T23:30:55.047Z,96982.22
2023-05-19T23:33:21.659Z,96988.09
2023-05-19T23:35:48.222Z,96981.06
2023-05-19T23:38:14.837Z,96990.13
2023-05-19T23:40:41.392Z,96987.16
2023-05-19T23:43:07.966Z,96984.84
2023-05-19T23:45:34.693Z,96984.94
2023-05-19T23:48:01.525Z,96987.22
2023-05-19T23:50:28.195Z,96985.81
2023-05-19T23:52:54.813Z,96991.59
2023-05-19T23:55:21.399Z,96985.13
2023-05-19T23:57:47.991Z,96980.09
